createdAt,value
2023-04-15T00:03:09.578Z,77.03
2023-04-15T00:08:12.902Z,77.04
2023-04-15T00:13:15.522Z,77.11
2023-04-15T00:18:18.228Z,77.30
2023-04-15T00:23:20.855Z,77.16
2023-04-15T00:28:23.443Z,77.01
2023-04-15T00:33:25.947Z,77.15
2023-04-15T00:38:28.664Z,76.94
2023-04-15T00:43:31.302Z,76.99
2023-04-15T00:48:33.854Z,77.12
2023-04-15T00:53:36.383Z,76.98
2023-04-15T00:58:38.948Z,77.16
2023-04-15T01:03:41.675Z,77.22
2023-04-15T01:08:45.499Z,77.29
2023-04-15T01:13:48.401Z,77.40
2023-04-15T01:18:52.130Z,77.53
2023-04-15T01:23:56.817Z,77.53
2023-04-15T01:28:59.628Z,77.64
2023-04-15T01:34:02.370Z,77.52
2023-04-15T01:39:05.662Z,77.68
2023-04-15T01:44:08.782Z,77.71
2023-04-15T01:49:11.681Z,77.81
2023-04-15T01:54:14.284Z,78.03
2023-04-15T01:59:16.970Z,78.10
2023-04-15T02:04:19.800Z,78.15
2023-04-15T02:09:22.422Z,78.25
2023-04-15T02:14:24.970Z,78.39
2023-04-15T02:19:27.450Z,78.68
2023-04-15T02:24:31.096Z,78.60
2023-04-15T02:29:33.633Z,78.78
2023-04-15T02:34:37.627Z,78.88
2023-04-15T02:39:40.153Z,78.88
2023-04-15T02:44:43.505Z,79.08
2023-04-15T02:49:46.031Z,79.00
2023-04-15T02:54:48.602Z,79.07
2023-04-15T02:59:51.157Z,78.94
2023-04-15T03:04:54.812Z,79.04
2023-04-15T03:09:57.897Z,78.75
2023-04-15T03:15:02.106Z,78.62
2023-04-15T03:20:06.296Z,78.67
2023-04-15T03:25:09.345Z,78.63
2023-04-15T03:30:12.386Z,78.82
2023-04-15T03:35:15.085Z,78.58
2023-04-15T03:40:17.683Z,78.75
2023-04-15T03:45:20.496Z,78.80
2023-04-15T03:50:23.089Z,78.57
2023-04-15T03:55:25.581Z,78.49
2023-04-15T04:00:28.133Z,78.44
2023-04-15T04:05:31.002Z,78.09
2023-04-15T04:10:33.552Z,78.04
2023-04-15T04:15:36.248Z,78.25
2023-04-15T04:20:38.766Z,78.04
2023-04-15T04:25:41.513Z,78.02
2023-04-15T04:30:44.120Z,77.69
2023-04-15T04:35:46.821Z,77.93
2023-04-15T04:40:49.383Z,77.70
2023-04-15T04:45:52.032Z,77.04
2023-04-15T04:50:54.932Z,76.73
2023-04-15T04:55:57.494Z,76.24
2023-04-15T05:01:00.232Z,76.14
2023-04-15T05:06:06.044Z,75.70
2023-04-15T05:11:08.994Z,75.50
2023-04-15T05:16:11.681Z,75.38
2023-04-15T05:21:14.409Z,74.73
2023-04-15T05:26:17.670Z,74.26
2023-04-15T05:31:20.571Z,74.15
2023-04-15T05:36:23.201Z,74.14
2023-04-15T05:41:25.922Z,74.10
2023-04-15T05:46:28.503Z,74.09
2023-04-15T05:51:31.372Z,74.39
2023-04-15T05:56:33.865Z,74.32
2023-04-15T06:01:36.466Z,73.99
2023-04-15T06:06:39.002Z,73.97
2023-04-15T06:11:41.552Z,73.92
2023-04-15T06:16:44.157Z,73.48
2023-04-15T06:21:46.783Z,72.66
2023-04-15T06:26:49.306Z,71.79
2023-04-15T06:31:52.178Z,71.37
2023-04-15T06:36:54.861Z,71.38
2023-04-15T06:41:57.499Z,71.16
2023-04-15T06:47:00.020Z,71.11
2023-04-15T06:52:02.783Z,71.04
2023-04-15T06:57:06.090Z,71.19
2023-04-15T07:02:12.384Z,71.31
2023-04-15T07:07:15.462Z,69.98
2023-04-15T07:12:18.046Z,69.58
2023-04-15T07:17:21.554Z,69.53
2023-04-15T07:22:24.397Z,69.27
2023-04-15T07:27:27.240Z,69.88
2023-04-15T07:32:29.806Z,70.14
2023-04-15T07:37:32.473Z,70.73
2023-04-15T07:42:35.621Z,70.38
2023-04-15T07:47:38.259Z,70.53
2023-04-15T07:52:41.315Z,70.64
2023-04-15T07:57:43.829Z,70.86
2023-04-15T08:02:48.368Z,70.71
2023-04-15T08:07:51.693Z,70.89
2023-04-15T08:12:54.880Z,70.79
2023-04-15T08:17:57.468Z,70.74
2023-04-15T08:23:00.194Z,70.44
2023-04-15T08:28:07.441Z,70.65
2023-04-15T08:33:10.425Z,70.34
2023-04-15T08:38:12.987Z,69.90
2023-04-15T08:43:26.328Z,69.69
2023-04-15T08:48:32.544Z,69.64
2023-04-15T08:53:35.527Z,69.43
2023-04-15T08:58:38.243Z,69.65
2023-04-15T09:03:42.016Z,69.87
2023-04-15T09:08:44.876Z,69.22
2023-04-15T09:13:47.541Z,69.26
2023-04-15T09:18:50.078Z,68.80
2023-04-15T09:24:00.796Z,68.38
2023-04-15T09:29:06.645Z,68.92
2023-04-15T09:34:09.316Z,68.63
2023-04-15T09:39:11.891Z,68.48
2023-04-15T09:44:24.605Z,68.57
2023-04-15T09:49:27.416Z,68.83
2023-04-15T09:54:38.676Z,69.28
2023-04-15T09:59:41.395Z,69.71
2023-04-15T10:04:44.434Z,69.73
2023-04-15T10:09:49.118Z,69.78
2023-04-15T10:14:58.465Z,70.29
2023-04-15T10:20:05.450Z,70.87
2023-04-15T10:25:09.632Z,71.01
2023-04-15T10:30:12.570Z,71.53
2023-04-15T10:35:16.438Z,71.56
2023-04-15T10:40:33.458Z,71.57
2023-04-15T10:45:37.566Z,71.18
2023-04-15T10:50:40.193Z,71.06
2023-04-15T10:55:42.727Z,71.13
2023-04-15T11:00:52.981Z,71.59
2023-04-15T11:05:55.928Z,71.63
2023-04-15T11:10:58.533Z,72.22
2023-04-15T11:16:02.503Z,72.40
2023-04-15T11:21:07.349Z,72.83
2023-04-15T11:26:12.215Z,73.55
2023-04-15T11:31:18.204Z,73.50
2023-04-15T11:36:21.194Z,73.67
2023-04-15T11:41:24.246Z,73.83
2023-04-15T11:46:34.179Z,73.51
2023-04-15T11:51:37.032Z,73.42
2023-04-15T11:56:39.630Z,73.16
2023-04-15T12:01:44.032Z,73.03
2023-04-15T12:06:46.750Z,73.62
2023-04-15T12:11:51.430Z,73.50
2023-04-15T12:16:58.552Z,74.54
2023-04-15T12:22:06.590Z,74.55
2023-04-15T12:27:12.416Z,75.76
2023-04-15T12:32:20.841Z,76.47
2023-04-15T12:37:23.565Z,77.18
2023-04-15T12:42:26.112Z,77.52
2023-04-15T12:47:28.711Z,77.61
2023-04-15T12:52:31.259Z,77.68
2023-04-15T12:57:33.810Z,77.74
2023-04-15T13:02:36.922Z,77.96
2023-04-15T13:07:39.697Z,77.95
2023-04-15T13:12:42.386Z,78.02
2023-04-15T13:17:44.959Z,78.24
2023-04-15T13:22:47.608Z,78.43
2023-04-15T13:27:50.172Z,78.03
2023-04-15T13:32:53.852Z,77.87
2023-04-15T13:37:56.448Z,77.50
2023-04-15T13:42:59.847Z,76.18
2023-04-15T13:48:02.467Z,74.45
2023-04-15T13:53:05.080Z,74.34
2023-04-15T13:58:08.819Z,74.01
2023-04-15T14:03:11.625Z,74.20
2023-04-15T14:08:14.557Z,75.15
2023-04-15T14:13:17.173Z,76.16
2023-04-15T14:18:19.918Z,77.46
2023-04-15T14:23:25.491Z,78.29
2023-04-15T14:28:28.012Z,79.16
2023-04-15T14:33:30.620Z,79.04
2023-04-15T14:38:38.544Z,79.03
2023-04-15T14:43:41.236Z,79.41
2023-04-15T14:48:43.892Z,80.01
2023-04-15T14:53:46.530Z,80.39
2023-04-15T14:58:49.373Z,80.72
2023-04-15T15:03:51.999Z,81.35
2023-04-15T15:08:54.574Z,81.42
2023-04-15T15:13:58.344Z,81.37
2023-04-15T15:19:00.980Z,81.71
2023-04-15T15:24:03.731Z,82.28
2023-04-15T15:29:06.499Z,82.71
2023-04-15T15:34:09.297Z,83.11
2023-04-15T15:39:11.999Z,82.77
2023-04-15T15:44:14.545Z,83.06
2023-04-15T15:49:17.064Z,83.60
2023-04-15T15:54:19.616Z,83.84
2023-04-15T15:59:22.125Z,84.48
2023-04-15T16:04:25.269Z,84.68
2023-04-15T16:09:27.941Z,84.93
2023-04-15T16:14:30.620Z,85.22
2023-04-15T16:19:33.433Z,85.30
2023-04-15T16:24:36.098Z,85.86
2023-04-15T16:29:38.839Z,85.66
2023-04-15T16:34:41.716Z,85.73
2023-04-15T16:39:44.804Z,86.01
2023-04-15T16:44:47.326Z,86.97
2023-04-15T16:49:49.879Z,87.63
2023-04-15T16:54:52.374Z,87.73
2023-04-15T16:59:54.936Z,87.99
2023-04-15T17:04:57.467Z,88.42
2023-04-15T17:10:00.173Z,88.94
2023-04-15T17:15:03.126Z,89.70
2023-04-15T17:20:06.153Z,90.50
2023-04-15T17:25:09.123Z,90.93
2023-04-15T17:30:11.985Z,90.95
2023-04-15T17:35:14.636Z,91.28
2023-04-15T17:40:17.328Z,91.41
2023-04-15T17:45:20.044Z,91.81
2023-04-15T17:50:22.581Z,92.98
2023-04-15T17:55:25.219Z,93.58
2023-04-15T18:00:27.953Z,93.39
2023-04-15T18:05:30.524Z,93.25
2023-04-15T18:10:33.994Z,93.14
2023-04-15T18:15:36.944Z,93.39
2023-04-15T18:20:39.475Z,94.10
2023-04-15T18:25:43.574Z,93.86
2023-04-15T18:30:46.549Z,93.97
2023-04-15T18:35:50.104Z,93.88
2023-04-15T18:40:53.356Z,93.76
2023-04-15T18:45:56.275Z,93.50
2023-04-15T18:50:59.526Z,93.78
2023-04-15T18:56:03.421Z,93.64
2023-04-15T19:01:06.572Z,93.76
2023-04-15T19:06:09.231Z,93.86
2023-04-15T19:11:12.044Z,94.16
2023-04-15T19:16:15.014Z,94.72
2023-04-15T19:21:17.993Z,94.82
2023-04-15T19:26:20.700Z,94.77
2023-04-15T19:31:23.310Z,94.88
2023-04-15T19:36:28.084Z,94.65
2023-04-15T19:41:30.866Z,94.84
2023-04-15T19:46:33.498Z,95.09
2023-04-15T19:51:36.392Z,95.18
2023-04-15T19:56:39.048Z,95.46
2023-04-15T20:01:41.650Z,95.39
2023-04-15T20:06:44.221Z,95.40
2023-04-15T20:12:48.079Z,95.61
2023-04-15T20:17:09.357Z,95.72
2023-04-15T20:22:11.934Z,95.70
2023-04-15T20:27:14.474Z,95.75
2023-04-15T20:32:17.900Z,95.64
2023-04-15T20:37:20.473Z,95.58
2023-04-15T20:42:23.000Z,95.54
2023-04-15T20:47:25.895Z,95.29
2023-04-15T20:52:28.517Z,95.26
2023-04-15T20:57:31.260Z,95.09
2023-04-15T21:02:33.925Z,95.14
2023-04-15T21:07:36.595Z,95.50
2023-04-15T21:12:40.818Z,95.16
2023-04-15T21:17:43.451Z,95.20
2023-04-15T21:22:46.073Z,95.42
2023-04-15T21:27:48.567Z,95.46
2023-04-15T21:32:51.219Z,95.41
2023-04-15T21:37:53.858Z,95.49
2023-04-15T21:42:56.459Z,95.47
2023-04-15T21:48:07.564Z,95.75
2023-04-15T21:53:11.109Z,95.64
2023-04-15T21:58:13.613Z,95.47
2023-04-15T22:03:16.655Z,95.22
2023-04-15T22:08:19.328Z,95.46
2023-04-15T22:13:21.904Z,95.62
2023-04-15T22:18:24.440Z,95.70
2023-04-15T22:23:26.975Z,95.80
2023-04-15T22:28:29.507Z,95.57
2023-04-15T22:33:32.094Z,95.51
2023-04-15T22:38:34.664Z,95.67
2023-04-15T22:43:37.202Z,95.86
2023-04-15T22:48:39.728Z,95.50
2023-04-15T22:53:42.261Z,95.44
2023-04-15T22:58:44.857Z,95.51
2023-04-15T23:03:57.163Z,95.91
2023-04-15T23:09:06.880Z,95.95
2023-04-15T23:14:09.508Z,96.11
2023-04-15T23:19:12.271Z,96.28
2023-04-15T23:24:15.072Z,96.27
2023-04-15T23:29:17.577Z,96.24
2023-04-15T23:34:20.118Z,96.47
2023-04-15T23:39:22.687Z,96.36
2023-04-15T23:44:25.251Z,96.25
2023-04-15T23:49:27.855Z,96.61
2023-04-15T23:54:30.404Z,96.49
2023-04-15T23:59:32.938Z,96.18
